sensor_id;sensor_type;location;lat;lon;timestamp;pressure;altitude;pressure_sealevel;temperature;humidity
50123;BME280;36021;48.670;6.184;2023-04-01T00:00:19;97766.53;;;9.83;100.00
50123;BME280;36021;48.670;6.184;2023-04-01T00:02:47;97762.00;;;9.87;100.00
50123;BME280;36021;48.670;6.184;2023-04-01T00:05:16;97746.50;;;9.91;100.00
50123;BME280;36021;48.670;6.184;2023-04-01T00:07:42;97748.72;;;9.89;100.00
50123;BME280;36021;48.670;6.184;2023-04-01T00:10:10;97745.50;;;9.87;100.00
50123;BME280;36021;48.670;6.184;2023-04-01T00:12:39;97757.16;;;9.84;100.00
50123;BME280;36021;48.670;6.184;2023-04-01T00:15:06;97741.47;;;9.84;100.00
50123;BME280;36021;48.670;6.184;2023-04-01T00:17:33;97743.41;;;9.92;100.00
50123;BME280;36021;48.670;6.184;2023-04-01T00:19:58;97741.63;;;9.88;100.00
50123;BME280;36021;48.670;6.184;2023-04-01T00:22:24;97731.56;;;9.92;100.00
50123;BME280;36021;48.670;6.184;2023-04-01T00:24:52;97744.69;;;9.86;100.00
50123;BME280;36021;48.670;6.184;2023-04-01T00:27:19;97746.78;;;9.89;100.00
50123;BME280;36021;48.670;6.184;2023-04-01T00:29:46;97733.69;;;9.86;100.00
50123;BME280;36021;48.670;6.184;2023-04-01T00:32:13;97730.63;;;9.88;100.00
50123;BME280;36021;48.670;6.184;2023-04-01T00:34:40;97747.13;;;9.88;100.00
50123;BME280;36021;48.670;6.184;2023-04-01T00:37:06;97743.56;;;9.87;100.00
50123;BME280;36021;48.670;6.184;2023-04-01T00:39:34;97729.00;;;9.87;100.00
50123;BME280;36021;48.670;6.184;2023-04-01T00:42:03;97740.81;;;9.87;100.00
50123;BME280;36021;48.670;6.184;2023-04-01T00:44:31;97741.63;;;9.88;100.00
50123;BME280;36021;48.670;6.184;2023-04-01T00:46:58;97738.06;;;9.87;100.00
50123;BME280;36021;48.670;6.184;2023-04-01T00:49:27;97750.34;;;9.90;100.00
50123;BME280;36021;48.670;6.184;2023-04-01T00:51:57;97733.84;;;9.90;100.00
50123;BME280;36021;48.670;6.184;2023-04-01T00:54:25;97742.88;;;9.82;100.00
50123;BME280;36021;48.670;6.184;2023-04-01T00:57:02;97748.72;;;9.89;100.00
50123;BME280;36021;48.670;6.184;2023-04-01T00:59:31;97734.97;;;9.89;100.00
50123;BME280;36021;48.670;6.184;2023-04-01T01:01:58;97740.66;;;9.84;100.00
50123;BME280;36021;48.670;6.184;2023-04-01T01:04:33;97735.63;;;9.86;100.00
50123;BME280;36021;48.670;6.184;2023-04-01T01:13:42;97740.97;;;9.91;100.00
50123;BME280;36021;48.670;6.184;2023-04-01T01:15:49;97731.75;;;9.87;100.00
50123;BME280;36021;48.670;6.184;2023-04-01T01:35:31;97722.97;;;9.68;100.00
50123;BME280;36021;48.670;6.184;2023-04-01T01:38:02;97726.38;;;9.65;100.00
50123;BME280;36021;48.670;6.184;2023-04-01T01:40:31;97735.75;;;9.64;100.00
50123;BME280;36021;48.670;6.184;2023-04-01T01:43:04;97734.13;;;9.63;100.00
50123;BME280;36021;48.670;6.184;2023-04-01T01:45:32;97740.25;;;9.60;100.00
50123;BME280;36021;48.670;6.184;2023-04-01T01:47:59;97727.63;;;9.59;100.00
50123;BME280;36021;48.670;6.184;2023-04-01T01:50:26;97731.53;;;9.58;100.00
50123;BME280;36021;48.670;6.184;2023-04-01T01:53:04;97729.25;;;9.60;100.00
50123;BME280;36021;48.670;6.184;2023-04-01T01:55:33;97723.09;;;9.63;100.00
50123;BME280;36021;48.670;6.184;2023-04-01T01:58:25;97723.44;;;9.61;100.00
50123;BME280;36021;48.670;6.184;2023-04-01T02:00:59;97737.03;;;9.58;100.00
50123;BME280;36021;48.670;6.184;2023-04-01T02:03:30;97721.34;;;9.58;100.00
50123;BME280;36021;48.670;6.184;2023-04-01T02:05:59;97727.97;;;9.57;100.00
50123;BME280;36021;48.670;6.184;2023-04-01T02:08:29;97718.25;;;9.60;100.00
50123;BME280;36021;48.670;6.184;2023-04-01T02:11:01;97724.25;;;9.62;100.00
50123;BME280;36021;48.670;6.184;2023-04-01T02:16:11;97725.22;;;9.66;100.00
50123;BME280;36021;48.670;6.184;2023-04-01T02:18:40;97739.78;;;9.58;100.00
50123;BME280;36021;48.670;6.184;2023-04-01T02:21:08;97729.25;;;9.60;100.00
50123;BME280;36021;48.670;6.184;2023-04-01T02:23:36;97719.53;;;9.54;100.00
50123;BME280;36021;48.670;6.184;2023-04-01T02:26:06;97719.19;;;9.47;100.00
50123;BME280;36021;48.670;6.184;2023-04-01T02:28:33;97731.81;;;9.48;100.00
50123;BME280;36021;48.670;6.184;2023-04-01T02:31:00;97720.00;;;9.47;100.00
50123;BME280;36021;48.670;6.184;2023-04-01T02:33:28;97726.00;;;9.49;100.00
50123;BME280;36021;48.670;6.184;2023-04-01T02:35:54;97721.47;;;9.45;100.00
50123;BME280;36021;48.670;6.184;2023-04-01T02:38:19;97711.09;;;9.41;100.00
50123;BME280;36021;48.670;6.184;2023-04-01T02:40:49;97738.25;;;9.34;100.00
50123;BME280;36021;48.670;6.184;2023-04-01T02:43:15;97730.78;;;9.26;100.00
50123;BME280;36021;48.670;6.184;2023-04-01T02:45:42;97743.19;;;9.15;100.00
50123;BME280;36021;48.670;6.184;2023-04-01T02:48:08;97731.84;;;9.08;100.00
50123;BME280;36021;48.670;6.184;2023-04-01T02:50:34;97726.81;;;9.10;100.00
50123;BME280;36021;48.670;6.184;2023-04-01T02:53:01;97711.97;;;9.11;100.00
50123;BME280;36021;48.670;6.184;2023-04-01T02:55:29;97711.97;;;9.11;100.00
50123;BME280;36021;48.670;6.184;2023-04-01T02:57:56;97703.56;;;9.16;100.00
50123;BME280;36021;48.670;6.184;2023-04-01T03:00:22;97692.09;;;9.23;100.00
50123;BME280;36021;48.670;6.184;2023-04-01T03:02:47;97705.56;;;9.24;100.00
50123;BME280;36021;48.670;6.184;2023-04-01T03:05:14;97702.81;;;9.24;100.00
50123;BME280;36021;48.670;6.184;2023-04-01T03:07:40;97703.28;;;9.26;100.00
50123;BME280;36021;48.670;6.184;2023-04-01T03:10:07;97700.41;;;9.31;100.00
50123;BME280;36021;48.670;6.184;2023-04-01T03:12:32;97696.53;;;9.32;100.00
50123;BME280;36021;48.670;6.184;2023-04-01T03:14:58;97695.38;;;9.33;100.00
50123;BME280;36021;48.670;6.184;2023-04-01T03:17:24;97676.31;;;9.37;100.00
50123;BME280;36021;48.670;6.184;2023-04-01T03:19:49;97703.16;;;9.40;100.00
50123;BME280;36021;48.670;6.184;2023-04-01T03:22:15;97704.94;;;9.36;100.00
50123;BME280;36021;48.670;6.184;2023-04-01T03:24:43;97705.25;;;9.34;100.00
50123;BME280;36021;48.670;6.184;2023-04-01T03:27:08;97702.19;;;9.36;100.00
50123;BME280;36021;48.670;6.184;2023-04-01T03:29:34;97696.19;;;9.25;100.00
50123;BME280;36021;48.670;6.184;2023-04-01T03:31:59;97708.78;;;9.26;100.00
50123;BME280;36021;48.670;6.184;2023-04-01T03:34:25;97702.97;;;9.19;100.00
50123;BME280;36021;48.670;6.184;2023-04-01T03:36:51;97709.41;;;9.23;100.00
50123;BME280;36021;48.670;6.184;2023-04-01T03:39:17;97723.44;;;9.13;100.00
50123;BME280;36021;48.670;6.184;2023-04-01T03:41:46;97715.19;;;9.13;100.00
50123;BME280;36021;48.670;6.184;2023-04-01T03:44:12;97706.47;;;9.11;100.00
50123;BME280;36021;48.670;6.184;2023-04-01T03:46:38;97715.34;;;9.08;100.00
50123;BME280;36021;48.670;6.184;2023-04-01T03:49:09;97707.75;;;9.05;100.00
50123;BME280;36021;48.670;6.184;2023-04-01T03:51:42;97703.38;;;9.04;100.00
50123;BME280;36021;48.670;6.184;2023-04-01T03:54:10;97705.94;;;9.01;100.00
50123;BME280;36021;48.670;6.184;2023-04-01T03:56:37;97709.13;;;8.94;100.00
50123;BME280;36021;48.670;6.184;2023-04-01T03:59:05;97693.16;;;8.96;100.00
50123;BME280;36021;48.670;6.184;2023-04-01T04:01:33;97695.91;;;8.96;100.00
50123;BME280;36021;48.670;6.184;2023-04-01T04:03:59;97699.31;;;8.93;100.00
50123;BME280;36021;48.670;6.184;2023-04-01T04:06:26;97710.88;;;8.90;100.00
50123;BME280;36021;48.670;6.184;2023-04-01T04:08:52;97695.03;;;8.87;100.00
50123;BME280;36021;48.670;6.184;2023-04-01T04:11:19;97703.81;;;8.89;100.00
50123;BME280;36021;48.670;6.184;2023-04-01T04:13:46;97709.78;;;8.91;100.00
50123;BME280;36021;48.670;6.184;2023-04-01T04:16:16;97698.78;;;8.91;100.00
50123;BME280;36021;48.670;6.184;2023-04-01T04:18:45;97707.03;;;8.91;100.00
50123;BME280;36021;48.670;6.184;2023-04-01T04:21:12;97714.78;;;8.89;100.00
50123;BME280;36021;48.670;6.184;2023-04-01T04:23:41;97708.28;;;8.85;100.00
50123;BME280;36021;48.670;6.184;2023-04-01T04:26:09;97711.19;;;8.80;100.00
50123;BME280;36021;48.670;6.184;2023-04-01T04:28:35;97716.16;;;8.78;100.00
50123;BME280;36021;48.670;6.184;2023-04-01T04:31:01;97707.56;;;8.71;100.00
50123;BME280;36021;48.670;6.184;2023-04-01T04:33:28;97713.06;;;8.71;100.00
50123;BME280;36021;48.670;6.184;2023-04-01T04:35:58;97701.72;;;8.64;100.00
50123;BME280;36021;48.670;6.184;2023-04-01T04:38:24;97712.69;;;8.64;100.00
50123;BME280;36021;48.670;6.184;2023-04-01T04:40:50;97706.22;;;8.60;100.00
50123;BME280;36021;48.670;6.184;2023-04-01T04:43:18;97717.03;;;8.56;100.00
50123;BME280;36021;48.670;6.184;2023-04-01T04:45:44;97711.84;;;8.55;100.00
50123;BME280;36021;48.670;6.184;2023-04-01T04:48:12;97706.50;;;8.50;100.00
50123;BME280;36021;48.670;6.184;2023-04-01T04:50:42;97708.72;;;8.48;100.00
50123;BME280;36021;48.670;6.184;2023-04-01T04:53:14;97698.06;;;8.46;100.00
50123;BME280;36021;48.670;6.184;2023-04-01T04:55:44;97700.47;;;8.48;100.00
50123;BME280;36021;48.670;6.184;2023-04-01T04:58:32;97706.25;;;8.38;100.00
50123;BME280;36021;48.670;6.184;2023-04-01T05:01:05;97702.19;;;8.35;100.00
50123;BME280;36021;48.670;6.184;2023-04-01T05:03:31;97716.72;;;8.35;100.00
50123;BME280;36021;48.670;6.184;2023-04-01T05:05:58;97717.84;;;8.34;100.00
50123;BME280;36021;48.670;6.184;2023-04-01T05:08:24;97705.56;;;8.32;100.00
50123;BME280;36021;48.670;6.184;2023-04-01T05:10:49;97707.00;;;8.29;100.00
50123;BME280;36021;48.670;6.184;2023-04-01T05:13:15;97698.13;;;8.32;100.00
50123;BME280;36021;48.670;6.184;2023-04-01T05:15:44;97712.88;;;8.36;100.00
50123;BME280;36021;48.670;6.184;2023-04-01T05:18:10;97723.94;;;8.31;100.00
50123;BME280;36021;48.670;6.184;2023-04-01T05:20:35;97707.03;;;8.38;100.00
50123;BME280;36021;48.670;6.184;2023-04-01T05:23:01;97716.25;;;8.33;100.00
50123;BME280;36021;48.670;6.184;2023-04-01T05:25:29;97709.59;;;8.34;100.00
50123;BME280;36021;48.670;6.184;2023-04-01T05:27:54;97722.22;;;8.35;100.00
50123;BME280;36021;48.670;6.184;2023-04-01T05:30:20;97737.06;;;8.34;100.00
50123;BME280;36021;48.670;6.184;2023-04-01T05:32:59;97723.50;;;8.38;100.00
50123;BME280;36021;48.670;6.184;2023-04-01T05:35:26;97715.72;;;8.31;100.00
50123;BME280;36021;48.670;6.184;2023-04-01T05:37:51;97713.69;;;8.37;100.00
50123;BME280;36021;48.670;6.184;2023-04-01T05:40:18;97728.72;;;8.40;100.00
50123;BME280;36021;48.670;6.184;2023-04-01T05:42:44;97727.88;;;8.39;100.00
50123;BME280;36021;48.670;6.184;2023-04-01T05:45:10;97720.16;;;8.41;100.00
50123;BME280;36021;48.670;6.184;2023-04-01T05:47:54;97731.31;;;8.45;100.00
50123;BME280;36021;48.670;6.184;2023-04-01T05:50:20;97722.59;;;8.43;100.00
50123;BME280;36021;48.670;6.184;2023-04-01T05:52:46;97749.75;;;8.44;100.00
50123;BME280;36021;48.670;6.184;2023-04-01T05:55:13;97728.09;;;8.43;100.00
50123;BME280;36021;48.670;6.184;2023-04-01T05:57:38;97727.94;;;8.48;100.00
50123;BME280;36021;48.670;6.184;2023-04-01T06:00:05;97719.88;;;8.51;100.00
50123;BME280;36021;48.670;6.184;2023-04-01T06:02:38;97705.88;;;8.53;100.00
50123;BME280;36021;48.670;6.184;2023-04-01T06:05:22;97722.81;;;8.55;100.00
50123;BME280;36021;48.670;6.184;2023-04-01T06:07:51;97706.97;;;8.52;100.00
50123;BME280;36021;48.670;6.184;2023-04-01T06:10:21;97706.34;;;8.55;100.00
50123;BME280;36021;48.670;6.184;2023-04-01T06:12:56;97718.66;;;8.57;100.00
50123;BME280;36021;48.670;6.184;2023-04-01T06:15:51;97742.84;;;8.55;100.00
50123;BME280;36021;48.670;6.184;2023-04-01T06:21:20;97734.94;;;8.54;100.00
50123;BME280;36021;48.670;6.184;2023-04-01T06:35:35;97717.47;;;8.50;100.00
50123;BME280;36021;48.670;6.184;2023-04-01T06:43:27;97733.81;;;8.55;100.00
50123;BME280;36021;48.670;6.184;2023-04-01T06:52:37;97729.16;;;8.64;100.00
50123;BME280;36021;48.670;6.184;2023-04-01T06:55:47;97731.81;;;8.69;100.00
50123;BME280;36021;48.670;6.184;2023-04-01T06:58:24;97738.28;;;8.73;100.00
50123;BME280;36021;48.670;6.184;2023-04-01T07:01:02;97750.88;;;8.74;100.00
50123;BME280;36021;48.670;6.184;2023-04-01T07:03:41;97739.78;;;8.79;100.00
50123;BME280;36021;48.670;6.184;2023-04-01T07:08:53;97742.91;;;8.86;100.00
50123;BME280;36021;48.670;6.184;2023-04-01T07:11:26;97744.00;;;8.85;100.00
50123;BME280;36021;48.670;6.184;2023-04-01T07:14:32;97753.88;;;8.86;100.00
50123;BME280;36021;48.670;6.184;2023-04-01T07:17:39;97745.50;;;8.91;100.00
50123;BME280;36021;48.670;6.184;2023-04-01T07:20:27;97757.13;;;8.88;100.00
50123;BME280;36021;48.670;6.184;2023-04-01T07:22:58;97754.38;;;8.88;100.00
50123;BME280;36021;48.670;6.184;2023-04-01T07:25:42;97751.00;;;8.91;100.00
50123;BME280;36021;48.670;6.184;2023-04-01T07:28:38;97758.16;;;9.01;100.00
50123;BME280;36021;48.670;6.184;2023-04-01T07:34:09;97757.84;;;9.02;100.00
50123;BME280;36021;48.670;6.184;2023-04-01T07:36:54;97757.50;;;9.04;100.00
50123;BME280;36021;48.670;6.184;2023-04-01T07:39:47;97759.81;;;9.10;100.00
50123;BME280;36021;48.670;6.184;2023-04-01T07:42:33;97764.19;;;9.11;100.00
50123;BME280;36021;48.670;6.184;2023-04-01T07:45:16;97776.81;;;9.12;100.00
50123;BME280;36021;48.670;6.184;2023-04-01T07:48:45;97768.41;;;9.17;100.00
50123;BME280;36021;48.670;6.184;2023-04-01T07:51:02;97778.66;;;9.25;100.00
50123;BME280;36021;48.670;6.184;2023-04-01T07:53:36;97766.84;;;9.25;100.00
50123;BME280;36021;48.670;6.184;2023-04-01T07:56:15;97782.25;;;9.34;100.00
50123;BME280;36021;48.670;6.184;2023-04-01T08:05:19;97794.88;;;9.35;100.00
50123;BME280;36021;48.670;6.184;2023-04-01T08:11:08;97784.19;;;9.42;100.00
50123;BME280;36021;48.670;6.184;2023-04-01T08:14:27;97797.94;;;9.42;100.00
50123;BME280;36021;48.670;6.184;2023-04-01T08:22:46;97800.22;;;9.40;100.00
50123;BME280;36021;48.670;6.184;2023-04-01T08:25:30;97808.75;;;9.30;100.00
50123;BME280;36021;48.670;6.184;2023-04-01T08:28:34;97793.88;;;9.31;100.00
50123;BME280;36021;48.670;6.184;2023-04-01T08:31:17;97817.19;;;9.42;100.00
50123;BME280;36021;48.670;6.184;2023-04-01T08:33:46;97810.91;;;9.42;100.00
50123;BME280;36021;48.670;6.184;2023-04-01T08:36:26;97799.44;;;9.49;100.00
50123;BME280;36021;48.670;6.184;2023-04-01T08:39:10;97813.69;;;9.51;100.00
50123;BME280;36021;48.670;6.184;2023-04-01T08:47:42;97820.84;;;9.60;100.00
50123;BME280;36021;48.670;6.184;2023-04-01T08:50:26;97829.56;;;9.62;100.00
50123;BME280;36021;48.670;6.184;2023-04-01T08:53:29;97818.25;;;9.64;100.00
50123;BME280;36021;48.670;6.184;2023-04-01T08:56:16;97829.63;;;9.71;100.00
50123;BME280;36021;48.670;6.184;2023-04-01T09:01:35;97826.47;;;10.03;100.00
50123;BME280;36021;48.670;6.184;2023-04-01T09:04:36;97819.84;;;10.04;100.00
50123;BME280;36021;48.670;6.184;2023-04-01T09:07:20;97820.66;;;10.13;100.00
50123;BME280;36021;48.670;6.184;2023-04-01T09:10:06;97821.50;;;10.14;100.00
50123;BME280;36021;48.670;6.184;2023-04-01T09:15:46;97827.50;;;10.24;100.00
50123;BME280;36021;48.670;6.184;2023-04-01T09:23:53;97826.22;;;10.48;100.00
50123;BME280;36021;48.670;6.184;2023-04-01T10:07:03;97844.66;;;10.21;100.00
50123;BME280;36021;48.670;6.184;2023-04-01T10:12:47;97862.69;;;10.27;100.00
50123;BME280;36021;48.670;6.184;2023-04-01T10:15:29;97853.25;;;10.28;100.00
50123;BME280;36021;48.670;6.184;2023-04-01T10:18:13;97865.44;;;10.27;100.00
50123;BME280;36021;48.670;6.184;2023-04-01T10:20:55;97877.38;;;10.14;100.00
50123;BME280;36021;48.670;6.184;2023-04-01T10:23:45;97872.44;;;10.03;100.00
50123;BME280;36021;48.670;6.184;2023-04-01T10:29:49;97871.00;;;10.05;100.00
50123;BME280;36021;48.670;6.184;2023-04-01T10:40:53;97895.84;;;10.22;100.00
50123;BME280;36021;48.670;6.184;2023-04-01T10:44:19;97870.28;;;10.30;100.00
50123;BME280;36021;48.670;6.184;2023-04-01T10:47:12;97865.56;;;10.22;100.00
50123;BME280;36021;48.670;6.184;2023-04-01T10:55:54;97850.78;;;10.01;100.00
50123;BME280;36021;48.670;6.184;2023-04-01T11:03:02;97871.16;;;10.09;100.00
50123;BME280;36021;48.670;6.184;2023-04-01T11:06:39;97885.97;;;10.21;100.00
50123;BME280;36021;48.670;6.184;2023-04-01T11:17:36;97902.66;;;10.16;100.00
50123;BME280;36021;48.670;6.184;2023-04-01T11:25:20;97913.72;;;10.33;100.00
50123;BME280;36021;48.670;6.184;2023-04-01T11:36:54;97930.19;;;10.16;100.00
50123;BME280;36021;48.670;6.184;2023-04-01T11:45:50;97912.72;;;10.38;100.00
50123;BME280;36021;48.670;6.184;2023-04-01T12:13:50;97912.81;;;10.72;100.00
50123;BME280;36021;48.670;6.184;2023-04-01T12:16:54;97905.50;;;10.76;100.00
50123;BME280;36021;48.670;6.184;2023-04-01T12:21:57;97918.28;;;10.64;100.00
50123;BME280;36021;48.670;6.184;2023-04-01T12:27:12;97906.31;;;10.77;100.00
50123;BME280;36021;48.670;6.184;2023-04-01T12:32:54;97896.09;;;10.69;100.00
50123;BME280;36021;48.670;6.184;2023-04-01T12:41:08;97894.47;;;11.02;100.00
50123;BME280;36021;48.670;6.184;2023-04-01T13:08:09;97872.28;;;13.00;100.00
50123;BME280;36021;48.670;6.184;2023-04-01T13:10:50;97864.63;;;13.38;100.00
50123;BME280;36021;48.670;6.184;2023-04-01T13:16:17;97860.78;;;13.64;100.00
50123;BME280;36021;48.670;6.184;2023-04-01T13:19:43;97864.97;;;13.37;100.00
50123;BME280;36021;48.670;6.184;2023-04-01T13:24:27;97853.66;;;13.99;100.00
50123;BME280;36021;48.670;6.184;2023-04-01T13:26:58;97848.00;;;14.20;100.00
50123;BME280;36021;48.670;6.184;2023-04-01T13:29:43;97843.41;;;14.36;100.00
50123;BME280;36021;48.670;6.184;2023-04-01T13:32:28;97843.59;;;13.82;100.00
50123;BME280;36021;48.670;6.184;2023-04-01T13:43:38;97859.25;;;13.54;100.00
50123;BME280;36021;48.670;6.184;2023-04-01T13:54:31;97834.44;;;14.67;100.00
50123;BME280;36021;48.670;6.184;2023-04-01T14:02:49;97855.28;;;14.00;100.00
50123;BME280;36021;48.670;6.184;2023-04-01T14:05:39;97854.47;;;13.99;100.00
50123;BME280;36021;48.670;6.184;2023-04-01T14:08:33;97848.56;;;14.25;100.00
50123;BME280;36021;48.670;6.184;2023-04-01T14:16:58;97851.03;;;16.56;100.00
50123;BME280;36021;48.670;6.184;2023-04-01T14:22:28;97833.16;;;16.57;100.00
50123;BME280;36021;48.670;6.184;2023-04-01T14:28:02;97857.13;;;16.61;100.00
50123;BME280;36021;48.670;6.184;2023-04-01T14:47:08;97886.00;;;15.07;100.00
50123;BME280;36021;48.670;6.184;2023-04-01T14:49:39;97875.81;;;14.59;100.00
50123;BME280;36021;48.670;6.184;2023-04-01T14:52:36;97884.81;;;13.84;100.00
50123;BME280;36021;48.670;6.184;2023-04-01T14:55:31;97898.22;;;14.06;100.00
50123;BME280;36021;48.670;6.184;2023-04-01T14:58:19;97895.38;;;13.04;100.00
50123;BME280;36021;48.670;6.184;2023-04-01T15:04:03;97899.97;;;12.50;100.00
50123;BME280;36021;48.670;6.184;2023-04-01T15:12:26;97909.41;;;12.78;100.00
50123;BME280;36021;48.670;6.184;2023-04-01T15:25:54;97891.19;;;13.51;100.00
50123;BME280;36021;48.670;6.184;2023-04-01T15:34:05;97899.19;;;13.65;100.00
50123;BME280;36021;48.670;6.184;2023-04-01T15:49:50;97893.19;;;13.30;100.00
50123;BME280;36021;48.670;6.184;2023-04-01T16:00:22;97898.91;;;13.46;100.00
50123;BME280;36021;48.670;6.184;2023-04-01T16:17:00;97911.31;;;13.73;100.00
50123;BME280;36021;48.670;6.184;2023-04-01T16:19:28;97906.63;;;13.40;100.00
50123;BME280;36021;48.670;6.184;2023-04-01T16:24:41;97914.19;;;13.31;100.00
50123;BME280;36021;48.670;6.184;2023-04-01T16:29:56;97920.19;;;12.92;100.00
50123;BME280;36021;48.670;6.184;2023-04-01T16:32:50;97920.34;;;12.95;100.00
50123;BME280;36021;48.670;6.184;2023-04-01T16:35:47;97922.19;;;12.83;100.00
50123;BME280;36021;48.670;6.184;2023-04-01T16:38:26;97933.53;;;12.90;100.00
50123;BME280;36021;48.670;6.184;2023-04-01T16:41:11;97919.38;;;12.71;100.00
50123;BME280;36021;48.670;6.184;2023-04-01T16:43:43;97923.00;;;12.63;100.00
50123;BME280;36021;48.670;6.184;2023-04-01T16:54:51;97986.44;;;11.32;100.00
50123;BME280;36021;48.670;6.184;2023-04-01T16:57:43;98013.31;;;10.75;100.00
50123;BME280;36021;48.670;6.184;2023-04-01T17:00:21;98022.25;;;10.32;100.00
50123;BME280;36021;48.670;6.184;2023-04-01T17:06:20;98035.00;;;9.75;100.00
50123;BME280;36021;48.670;6.184;2023-04-01T17:08:48;98060.81;;;9.43;100.00
50123;BME280;36021;48.670;6.184;2023-04-01T17:11:23;98054.25;;;9.31;100.00
50123;BME280;36021;48.670;6.184;2023-04-01T17:14:19;98068.59;;;9.41;100.00
50123;BME280;36021;48.670;6.184;2023-04-01T17:17:05;98061.84;;;9.48;100.00
50123;BME280;36021;48.670;6.184;2023-04-01T17:22:22;98056.22;;;9.75;100.00
50123;BME280;36021;48.670;6.184;2023-04-01T17:46:09;98059.50;;;10.08;100.00
50123;BME280;36021;48.670;6.184;2023-04-01T17:51:36;98066.91;;;10.21;100.00
50123;BME280;36021;48.670;6.184;2023-04-01T17:59:38;98069.81;;;10.24;100.00
50123;BME280;36021;48.670;6.184;2023-04-01T18:12:44;98080.72;;;10.07;100.00
50123;BME280;36021;48.670;6.184;2023-04-01T18:18:46;98085.63;;;9.88;100.00
50123;BME280;36021;48.670;6.184;2023-04-01T18:26:37;98089.59;;;9.82;100.00
50123;BME280;36021;48.670;6.184;2023-04-01T18:29:22;98087.47;;;9.79;100.00
50123;BME280;36021;48.670;6.184;2023-04-01T18:32:00;98084.09;;;9.82;100.00
50123;BME280;36021;48.670;6.184;2023-04-01T18:37:55;98097.13;;;9.68;100.00
50123;BME280;36021;48.670;6.184;2023-04-01T18:40:27;98104.66;;;9.62;100.00
50123;BME280;36021;48.670;6.184;2023-04-01T18:43:02;98099.91;;;9.54;100.00
50123;BME280;36021;48.670;6.184;2023-04-01T18:45:48;98097.69;;;9.42;100.00
50123;BME280;36021;48.670;6.184;2023-04-01T18:50:54;98092.63;;;9.36;100.00
50123;BME280;36021;48.670;6.184;2023-04-01T18:56:06;98100.97;;;9.45;100.00
50123;BME280;36021;48.670;6.184;2023-04-01T19:04:00;98116.16;;;9.42;100.00
50123;BME280;36021;48.670;6.184;2023-04-01T19:06:35;98115.81;;;9.43;100.00
50123;BME280;36021;48.670;6.184;2023-04-01T19:09:16;98121.03;;;9.45;100.00
50123;BME280;36021;48.670;6.184;2023-04-01T19:11:54;98133.16;;;9.44;100.00
50123;BME280;36021;48.670;6.184;2023-04-01T19:17:18;98131.22;;;9.45;100.00
50123;BME280;36021;48.670;6.184;2023-04-01T19:20:07;98135.59;;;9.46;100.00
50123;BME280;36021;48.670;6.184;2023-04-01T19:25:48;98149.16;;;9.42;100.00
50123;BME280;36021;48.670;6.184;2023-04-01T19:30:55;98151.66;;;9.52;100.00
50123;BME280;36021;48.670;6.184;2023-04-01T19:36:34;98172.72;;;9.57;100.00
50123;BME280;36021;48.670;6.184;2023-04-01T19:42:04;98180.28;;;9.51;100.00
50123;BME280;36021;48.670;6.184;2023-04-01T19:56:22;98197.63;;;9.24;100.00
50123;BME280;36021;48.670;6.184;2023-04-01T19:59:02;98203.44;;;9.23;100.00
50123;BME280;36021;48.670;6.184;2023-04-01T20:01:37;98204.66;;;9.30;100.00
50123;BME280;36021;48.670;6.184;2023-04-01T20:14:55;98222.50;;;9.19;100.00
50123;BME280;36021;48.670;6.184;2023-04-01T20:17:51;98241.13;;;9.22;100.00
50123;BME280;36021;48.670;6.184;2023-04-01T20:20:21;98243.16;;;9.30;100.00
50123;BME280;36021;48.670;6.184;2023-04-01T20:25:45;98248.03;;;9.33;100.00
50123;BME280;36021;48.670;6.184;2023-04-01T20:30:53;98256.19;;;9.38;100.00
50123;BME280;36021;48.670;6.184;2023-04-01T20:36:42;98253.94;;;9.13;100.00
50123;BME280;36021;48.670;6.184;2023-04-01T20:42:21;98258.41;;;9.23;100.00
50123;BME280;36021;48.670;6.184;2023-04-01T20:45:10;98264.03;;;9.18;100.00
50123;BME280;36021;48.670;6.184;2023-04-01T20:47:51;98254.75;;;9.14;100.00
50123;BME280;36021;48.670;6.184;2023-04-01T20:53:11;98263.91;;;9.23;100.00
50123;BME280;36021;48.670;6.184;2023-04-01T21:12:27;98274.50;;;9.29;100.00
50123;BME280;36021;48.670;6.184;2023-04-01T21:15:07;98275.53;;;9.33;100.00
50123;BME280;36021;48.670;6.184;2023-04-01T21:20:44;98276.34;;;9.34;100.00
50123;BME280;36021;48.670;6.184;2023-04-01T21:31:04;98268.91;;;9.34;100.00
50123;BME280;36021;48.670;6.184;2023-04-01T21:49:47;98288.56;;;9.28;100.00
50123;BME280;36021;48.670;6.184;2023-04-01T21:55:20;98296.31;;;9.26;100.00
50123;BME280;36021;48.670;6.184;2023-04-01T22:12:02;98309.13;;;9.30;100.00
50123;BME280;36021;48.670;6.184;2023-04-01T22:14:55;98311.88;;;9.30;100.00
50123;BME280;36021;48.670;6.184;2023-04-01T22:23:46;98312.41;;;9.32;100.00
50123;BME280;36021;48.670;6.184;2023-04-01T22:26:46;98320.84;;;9.36;100.00
50123;BME280;36021;48.670;6.184;2023-04-01T22:29:27;98314.13;;;9.28;100.00
50123;BME280;36021;48.670;6.184;2023-04-01T22:31:59;98319.31;;;9.30;100.00
50123;BME280;36021;48.670;6.184;2023-04-01T22:34:52;98323.47;;;9.14;100.00
50123;BME280;36021;48.670;6.184;2023-04-01T22:50:22;98326.44;;;9.17;100.00
50123;BME280;36021;48.670;6.184;2023-04-01T22:53:08;98328.28;;;9.22;100.00
50123;BME280;36021;48.670;6.184;2023-04-01T22:55:44;98330.94;;;9.40;100.00
50123;BME280;36021;48.670;6.184;2023-04-01T22:58:20;98334.59;;;9.50;100.00
50123;BME280;36021;48.670;6.184;2023-04-01T23:00:56;98336.22;;;9.37;100.00
50123;BME280;36021;48.670;6.184;2023-04-01T23:03:29;98323.59;;;9.36;100.00
50123;BME280;36021;48.670;6.184;2023-04-01T23:05:58;98332.97;;;9.21;100.00
50123;BME280;36021;48.670;6.184;2023-04-01T23:11:26;98326.84;;;9.24;100.00
50123;BME280;36021;48.670;6.184;2023-04-01T23:16:40;98326.00;;;9.10;100.00
50123;BME280;36021;48.670;6.184;2023-04-01T23:19:15;98334.06;;;9.20;100.00
50123;BME280;36021;48.670;6.184;2023-04-01T23:21:49;98327.88;;;9.28;100.00
50123;BME280;36021;48.670;6.184;2023-04-01T23:24:41;98329.00;;;9.27;100.00